»·PEaware :: N630HR KCWS-KAMA

N630HR :: KCWS-KAMA

FLIGHT INFORMATION

Flight Status: Arrived
Operator: Privately registered:
United States
More flights under this callsign
Pilot: Drew L. (13237)
Aircraft: DEHAVILLAND DH-6 TWIN OTTER
(DHC6)
More flights by this aircraft type
Origin: KCWS
Destination: KAMA Amarillo Intl
United States
More flights between these airports :: More routes between these airports
Route: KCWC AMA
File this flight plan on PilotEdge
Remarks:
Altitude:
(Current/Filed)
14,000ft
Speed:
(Current/Filed)
455kts
Departed: 22-Jul-17 05:50 PM
Arrived: 22-Jul-17 06:57 PM
Distance/Time
Traveled:
Not Available
Distance/Time
To Go:
Arrived

Flight Plot

Page will automatically refresh every two minutes.

Flight plan parsing failed; only flown route is shown


Map Options




Map Legend


Flown Route
Filed Route
Departure Airport
Arrival Airport
Navaid (VOR, NDB)
Fix

Horizontal Profiles

Position Reports

Time Latitude Longitude Heading Altitude Ground
Speed
22-Jul-17 17:50 33.863637 -98.492029 0 984ft 0kts
22-Jul-17 17:51 33.866474 -98.490352 183 981ft 0kts
22-Jul-17 17:52 33.866053 -98.490354 176 981ft 35kts
22-Jul-17 17:53 33.843901 -98.482042 73 2312ft 124kts
22-Jul-17 17:54 33.876920 -98.496664 320 4162ft 151kts
22-Jul-17 17:55 33.898563 -98.539803 297 5826ft 151kts
22-Jul-17 17:56 33.911112 -98.583346 291 6768ft 135kts
22-Jul-17 17:57 33.924263 -98.624178 302 7619ft 131kts
22-Jul-17 17:58 33.940074 -98.662092 303 8388ft 129kts
22-Jul-17 17:59 33.956536 -98.699628 303 9102ft 128kts
22-Jul-17 18:00 33.973085 -98.736935 302 9766ft 127kts
22-Jul-17 18:01 33.989847 -98.773501 297 10426ft 124kts
22-Jul-17 18:02 34.005710 -98.810281 297 10891ft 133kts
22-Jul-17 18:03 34.024153 -98.852210 298 10882ft 149kts
22-Jul-17 18:04 34.043870 -98.896712 297 10866ft 153kts
22-Jul-17 18:05 34.065425 -98.945264 296 10872ft 178kts
22-Jul-17 18:06 34.089069 -98.998779 296 10859ft 185kts
22-Jul-17 18:07 34.112996 -99.053096 295 10856ft 187kts
22-Jul-17 18:08 34.137388 -99.108586 295 10856ft 190kts
22-Jul-17 18:09 34.162083 -99.164818 295 10857ft 192kts
22-Jul-17 18:10 34.186850 -99.221243 295 10856ft 192kts
22-Jul-17 18:11 34.211584 -99.277653 295 10847ft 193kts
22-Jul-17 18:12 34.236481 -99.334585 295 10847ft 193kts
22-Jul-17 18:13 34.261241 -99.391259 295 10858ft 192kts
22-Jul-17 18:14 34.285989 -99.448022 295 10875ft 192kts
22-Jul-17 18:15 34.310569 -99.504478 295 10888ft 192kts
22-Jul-17 18:16 34.335307 -99.561390 295 10897ft 192kts
22-Jul-17 18:17 34.359856 -99.617961 295 10903ft 192kts
22-Jul-17 18:18 34.384356 -99.674532 295 10910ft 192kts
22-Jul-17 18:19 34.408776 -99.730999 295 10917ft 191kts
22-Jul-17 18:20 34.433160 -99.787469 295 10923ft 191kts
22-Jul-17 18:21 34.457337 -99.843557 295 10930ft 190kts
22-Jul-17 18:22 34.481631 -99.899987 295 10930ft 190kts
22-Jul-17 18:23 34.505839 -99.956321 295 10930ft 190kts
22-Jul-17 18:24 34.530022 -100.012692 295 10930ft 190kts
22-Jul-17 18:25 34.554162 -100.069057 295 10930ft 190kts
22-Jul-17 18:26 34.578317 -100.125549 295 10930ft 190kts
22-Jul-17 18:27 34.602404 -100.181987 295 10930ft 190kts
22-Jul-17 18:28 34.626484 -100.238494 295 10930ft 190kts
22-Jul-17 18:29 34.650543 -100.295055 295 10930ft 190kts
22-Jul-17 18:30 34.674638 -100.351781 295 10930ft 190kts
22-Jul-17 18:31 34.698577 -100.408239 295 10930ft 190kts
22-Jul-17 18:32 34.722616 -100.465036 295 10930ft 190kts
22-Jul-17 18:33 34.746523 -100.521594 295 10930ft 190kts
22-Jul-17 18:34 34.770501 -100.578440 295 10930ft 190kts
22-Jul-17 18:35 34.794329 -100.635002 295 10930ft 190kts
22-Jul-17 18:36 34.818204 -100.691797 294 10931ft 190kts
22-Jul-17 18:37 34.842059 -100.748619 294 10931ft 190kts
22-Jul-17 18:38 34.865835 -100.805360 294 10931ft 190kts
22-Jul-17 18:39 34.889681 -100.862392 295 10949ft 190kts
22-Jul-17 18:40 34.913393 -100.919225 295 10972ft 190kts
22-Jul-17 18:41 34.937085 -100.976127 295 10989ft 190kts
22-Jul-17 18:42 34.960685 -101.032911 296 11001ft 189kts
22-Jul-17 18:43 34.984259 -101.089591 297 11006ft 190kts
22-Jul-17 18:44 35.007842 -101.146383 297 10934ft 184kts
22-Jul-17 18:45 35.030719 -101.201517 298 10186ft 185kts
22-Jul-17 18:46 35.054149 -101.258157 297 9363ft 189kts
22-Jul-17 18:47 35.077522 -101.314768 297 8669ft 188kts
22-Jul-17 18:48 35.100627 -101.370846 297 8042ft 187kts
22-Jul-17 18:49 35.123673 -101.426863 297 7469ft 186kts
22-Jul-17 18:50 35.146601 -101.482691 297 6947ft 185kts
22-Jul-17 18:51 35.169025 -101.536963 308 6177ft 165kts
22-Jul-17 18:52 35.187091 -101.518576 88 6235ft 95kts
22-Jul-17 18:53 35.180417 -101.494007 222 5815ft 98kts
22-Jul-17 18:54 35.192849 -101.519821 302 5653ft 113kts
22-Jul-17 18:55 35.205050 -101.553126 294 6255ft 107kts
22-Jul-17 18:56 35.219343 -101.584732 300 6700ft 112kts
22-Jul-17 18:57 35.233956 -101.619829 302 6901ft 137kts
22-Jul-17 18:58 35.246678 -101.647336 263 6269ft 114kts
22-Jul-17 18:59 35.237929 -101.690947 209 3955ft 150kts
22-Jul-17 19:00 35.220187 -101.712568 138 3611ft 10kts
22-Jul-17 19:01 35.215904 -101.713916 223 3616ft 27kts
22-Jul-17 19:02 35.213917 -101.714850 228 3616ft 0kts

Navigation Log

Ident Type
Flight plan parsing failed, navigation log unavailable